createdAt,value
2018-07-19T05:11:54.037Z,940
2018-07-19T05:12:14.332Z,944
2018-07-19T05:12:34.513Z,944
2018-07-19T05:12:54.700Z,948
2018-07-19T05:13:14.856Z,956
2018-07-19T05:13:35.000Z,956
2018-07-19T05:13:56.589Z,948
2018-07-19T05:14:17.254Z,928
2018-07-19T05:14:37.427Z,928
2018-07-19T05:14:57.590Z,932
2018-07-19T05:15:17.755Z,932
2018-07-19T05:15:38.346Z,940
2018-07-19T05:15:58.503Z,932
2018-07-19T05:16:18.673Z,912
2018-07-19T05:16:38.831Z,904
2018-07-19T05:16:58.980Z,900
2018-07-19T05:17:19.123Z,880
2018-07-19T05:17:39.295Z,860
2018-07-19T05:17:59.452Z,848
2018-07-19T05:18:20.272Z,836
2018-07-19T05:18:40.437Z,828
2018-07-19T05:19:00.604Z,820
2018-07-19T05:19:20.783Z,816
2018-07-19T05:19:42.201Z,808
2018-07-19T05:20:02.922Z,804
2018-07-19T05:20:23.111Z,808
2018-07-19T05:20:43.285Z,796
2018-07-19T05:21:03.912Z,784
2018-07-19T05:34:53.002Z,840
2018-07-19T05:35:13.590Z,844
2018-07-19T05:35:33.780Z,848
2018-07-19T05:35:53.972Z,852
2018-07-19T05:36:14.138Z,860
2018-07-19T05:36:34.289Z,864
2018-07-19T05:36:54.459Z,868
2018-07-19T05:37:14.643Z,868
2018-07-19T05:37:34.893Z,872
2018-07-19T05:37:56.245Z,880
2018-07-19T05:38:16.427Z,884
2018-07-19T05:38:36.604Z,876
2018-07-19T05:38:56.784Z,868
2018-07-19T05:39:16.997Z,860
2018-07-19T05:39:37.772Z,852
2018-07-19T05:39:57.927Z,848
2018-07-19T05:40:18.095Z,840
2018-07-19T05:40:38.310Z,832
2018-07-19T05:40:59.083Z,832
2018-07-19T05:41:19.282Z,828
2018-07-19T05:41:39.452Z,828
2018-07-19T05:41:59.613Z,828
2018-07-19T05:42:19.801Z,832
2018-07-19T05:42:40.144Z,844
2018-07-19T05:43:00.313Z,852
2018-07-19T05:43:20.512Z,856
2018-07-19T05:43:40.673Z,856
2018-07-19T05:44:00.840Z,856
2018-07-19T05:44:21.119Z,856
2018-07-19T05:44:41.888Z,860
2018-07-19T05:45:02.053Z,856
2018-07-19T05:45:22.248Z,856
2018-07-19T05:45:42.434Z,860
2018-07-19T05:46:03.071Z,860
2018-07-19T05:46:23.354Z,856
2018-07-19T05:46:43.501Z,860
2018-07-19T05:47:03.750Z,860
2018-07-19T05:47:23.920Z,860
2018-07-19T05:47:44.678Z,860
2018-07-19T05:48:04.841Z,864
2018-07-19T05:48:25.020Z,864
2018-07-19T05:48:45.203Z,868
2018-07-19T05:49:05.367Z,864
2018-07-19T05:49:25.533Z,864
2018-07-19T05:49:45.750Z,876
2018-07-19T05:50:05.925Z,880
2018-07-19T05:50:26.432Z,884
2018-07-19T05:50:46.601Z,888
2018-07-19T05:51:06.749Z,888
2018-07-19T05:51:26.940Z,892
2018-07-19T05:51:48.583Z,884
2018-07-19T05:52:08.778Z,880
2018-07-19T05:52:28.950Z,880
2018-07-19T05:52:49.088Z,884
2018-07-19T05:53:09.260Z,888
2018-07-19T05:53:29.444Z,892
2018-07-19T05:53:49.613Z,896
2018-07-19T05:54:09.789Z,900
2018-07-19T05:54:29.940Z,896
2018-07-19T05:54:50.702Z,896
2018-07-19T05:55:10.952Z,900
2018-07-19T05:55:31.140Z,900
2018-07-19T05:55:51.307Z,900
2018-07-19T05:56:11.476Z,896
2018-07-19T05:56:31.647Z,900
2018-07-19T05:56:51.808Z,896
2018-07-19T05:57:11.960Z,900
2018-07-19T05:57:32.643Z,904
2018-07-19T05:57:52.791Z,900
2018-07-19T05:58:12.975Z,900
2018-07-19T05:58:33.142Z,900
2018-07-19T05:58:53.783Z,904
2018-07-19T05:59:13.930Z,904
2018-07-19T05:59:34.088Z,908
2018-07-19T05:59:54.386Z,912
2018-07-19T06:00:14.958Z,912
2018-07-19T06:00:35.111Z,912
2018-07-19T06:00:55.278Z,908
2018-07-19T06:01:15.482Z,908
2018-07-19T06:01:35.690Z,912
2018-07-19T06:01:55.888Z,912
2018-07-19T06:02:16.082Z,912
2018-07-19T06:02:36.369Z,912
2018-07-19T06:02:56.580Z,912
2018-07-19T06:03:16.938Z,916
2018-07-19T06:03:37.100Z,908
2018-07-19T06:03:57.269Z,912
2018-07-19T06:04:17.418Z,916
2018-07-19T06:04:37.963Z,916
2018-07-19T06:04:58.145Z,912
2018-07-19T06:05:18.362Z,908
2018-07-19T06:05:38.521Z,908
2018-07-19T06:05:58.693Z,908
2018-07-19T06:06:19.506Z,904
2018-07-19T06:06:39.706Z,900
2018-07-19T06:06:59.858Z,904
2018-07-19T06:07:20.025Z,900
2018-07-19T06:07:40.248Z,900
2018-07-19T06:08:00.439Z,900
2018-07-19T06:08:20.616Z,900
2018-07-19T06:08:40.809Z,900
2018-07-19T06:09:00.982Z,900
2018-07-19T06:09:21.705Z,900
2018-07-19T06:09:42.037Z,904
2018-07-19T06:10:02.162Z,908
2018-07-19T06:10:22.353Z,908
2018-07-19T06:10:43.234Z,912
2018-07-19T06:11:03.397Z,912
2018-07-19T06:11:23.547Z,912
2018-07-19T06:11:44.225Z,916
2018-07-19T06:12:04.380Z,912
2018-07-19T06:12:24.547Z,916
2018-07-19T06:12:44.747Z,916
2018-07-19T06:13:04.956Z,916
2018-07-19T06:13:26.041Z,916
2018-07-19T06:13:46.210Z,916
2018-07-19T06:14:06.373Z,916
2018-07-19T06:14:26.594Z,916
2018-07-19T06:14:46.952Z,916
2018-07-19T06:15:07.157Z,920
2018-07-19T06:15:27.364Z,916
2018-07-19T06:15:47.540Z,920
2018-07-19T06:16:07.761Z,920
2018-07-19T06:16:27.879Z,920
2018-07-19T06:16:48.048Z,920
2018-07-19T06:17:08.226Z,924
2018-07-19T06:17:28.481Z,924
2018-07-19T06:17:48.658Z,924
2018-07-19T06:18:08.829Z,924
2018-07-19T06:18:29.046Z,928
2018-07-19T06:18:49.181Z,928
2018-07-19T06:19:09.352Z,928
2018-07-19T06:19:29.496Z,932
2018-07-19T06:19:50.141Z,936
2018-07-19T06:20:10.324Z,936
2018-07-19T06:20:30.494Z,936
2018-07-19T06:20:50.671Z,936
2018-07-19T06:21:10.827Z,936
2018-07-19T06:21:30.993Z,940
2018-07-19T06:21:51.166Z,936
2018-07-19T06:22:11.350Z,940
2018-07-19T06:22:31.515Z,936
2018-07-19T06:22:52.280Z,940
2018-07-19T06:23:12.426Z,936
2018-07-19T06:23:32.613Z,940
2018-07-19T06:23:52.791Z,940
2018-07-19T06:24:12.988Z,940
2018-07-19T06:24:33.149Z,940
2018-07-19T06:24:53.321Z,940
2018-07-19T06:25:13.502Z,936
2018-07-19T06:25:33.669Z,932
2018-07-19T06:25:53.838Z,936
2018-07-19T06:26:14.000Z,936
2018-07-19T06:26:34.168Z,936
2018-07-19T06:26:54.379Z,936
2018-07-19T06:27:14.550Z,940
2018-07-19T06:27:34.723Z,940
2018-07-19T06:27:54.914Z,944
2018-07-19T06:28:15.128Z,944
2018-07-19T06:28:35.421Z,952
2018-07-19T06:28:55.596Z,948
2018-07-19T06:29:15.759Z,948
2018-07-19T06:29:35.916Z,944
2018-07-19T06:29:56.094Z,944
2018-07-19T06:30:16.261Z,944
2018-07-19T06:30:36.432Z,944
2018-07-19T06:30:56.594Z,944
2018-07-19T06:31:16.814Z,948
2018-07-19T06:31:37.010Z,944
2018-07-19T06:31:57.152Z,948
2018-07-19T06:32:17.330Z,948
2018-07-19T06:32:37.495Z,944
2018-07-19T06:32:57.683Z,944
2018-07-19T06:33:17.848Z,948
2018-07-19T06:33:38.012Z,948
2018-07-19T06:33:58.206Z,948
2018-07-19T06:34:18.387Z,948
2018-07-19T06:34:38.549Z,948
2018-07-19T06:34:58.713Z,952
2018-07-19T06:35:18.884Z,952
2018-07-19T06:35:39.090Z,952
2018-07-19T06:35:59.266Z,952
2018-07-19T06:36:19.429Z,952
2018-07-19T06:36:39.599Z,952
2018-07-19T06:36:59.795Z,948
2018-07-19T06:37:19.975Z,948
2018-07-19T06:37:40.127Z,948
2018-07-19T06:38:00.296Z,948
2018-07-19T06:38:20.461Z,944
2018-07-19T06:38:40.627Z,944
2018-07-19T06:39:00.804Z,948
2018-07-19T06:39:20.997Z,944
2018-07-19T06:39:41.143Z,952
2018-07-19T06:40:01.313Z,944
2018-07-19T06:40:21.563Z,944
2018-07-19T06:40:41.734Z,948
2018-07-19T06:41:01.911Z,948
2018-07-19T06:41:22.256Z,944
2018-07-19T06:41:42.408Z,944
2018-07-19T06:42:02.599Z,944
2018-07-19T06:42:22.757Z,948
2018-07-19T06:42:42.925Z,944
2018-07-19T06:43:03.107Z,948
2018-07-19T06:43:23.332Z,944
2018-07-19T06:43:43.510Z,952
2018-07-19T06:44:03.685Z,952
2018-07-19T06:44:23.862Z,952
2018-07-19T06:44:44.044Z,956
2018-07-19T06:45:04.228Z,956
2018-07-19T06:45:24.393Z,956
2018-07-19T06:45:44.557Z,956
2018-07-19T06:46:04.759Z,956
2018-07-19T06:46:24.942Z,960
2018-07-19T06:46:45.118Z,960
2018-07-19T06:47:05.280Z,956
2018-07-19T06:47:25.460Z,956
2018-07-19T06:47:45.605Z,964
2018-07-19T06:48:05.765Z,956
2018-07-19T06:48:25.926Z,960
2018-07-19T06:48:46.139Z,956
2018-07-19T06:49:06.295Z,956
2018-07-19T06:49:26.534Z,956
2018-07-19T06:49:47.069Z,960
2018-07-19T06:50:07.233Z,964
2018-07-19T06:50:27.378Z,972
2018-07-19T06:50:47.539Z,972
2018-07-19T06:51:07.712Z,968
2018-07-19T06:51:28.442Z,968
2018-07-19T06:51:48.610Z,964
2018-07-19T06:52:08.796Z,964
2018-07-19T06:52:28.977Z,964
2018-07-19T06:52:49.156Z,964
2018-07-19T06:53:09.347Z,964
2018-07-19T06:53:29.506Z,960
2018-07-19T06:53:49.670Z,964
2018-07-19T06:54:09.834Z,968
2018-07-19T06:54:29.999Z,972
2018-07-19T06:54:50.161Z,976
2018-07-19T06:55:10.353Z,976
2018-07-19T06:55:31.196Z,980
2018-07-19T06:55:51.390Z,980
2018-07-19T06:56:11.556Z,984
2018-07-19T06:56:31.728Z,992
2018-07-19T06:56:51.881Z,996
2018-07-19T06:57:12.063Z,996
2018-07-19T06:57:32.275Z,996
2018-07-19T06:57:52.398Z,1012
2018-07-19T06:58:12.599Z,1008
2018-07-19T06:58:32.770Z,1008
2018-07-19T06:58:52.938Z,1016
2018-07-19T06:59:13.102Z,1024
2018-07-19T06:59:33.262Z,1024
2018-07-19T06:59:53.972Z,1028
2018-07-19T07:00:14.166Z,1028
2018-07-19T07:00:34.385Z,1036
2018-07-19T07:00:54.565Z,1040
2018-07-19T07:01:14.899Z,1040
2018-07-19T07:01:35.081Z,1040
2018-07-19T07:01:55.441Z,1040
2018-07-19T07:02:15.637Z,1044
2018-07-19T07:02:35.829Z,1044
2018-07-19T07:02:56.728Z,1044
2018-07-19T07:03:16.890Z,1048
2018-07-19T07:03:37.166Z,1052
2018-07-19T07:03:57.584Z,1056
2018-07-19T07:04:17.780Z,1056
2018-07-19T07:04:38.993Z,1056
2018-07-19T07:04:59.136Z,1060
2018-07-19T07:05:19.623Z,1060
2018-07-19T07:05:39.800Z,1060
2018-07-19T07:05:59.984Z,1064
2018-07-19T07:06:20.147Z,1064
2018-07-19T07:06:40.966Z,1064
2018-07-19T07:07:01.117Z,1068
2018-07-19T07:07:21.316Z,1072
2018-07-19T07:07:41.704Z,1068
2018-07-19T07:08:01.872Z,1064
2018-07-19T07:08:22.107Z,1084
2018-07-19T07:08:42.744Z,1068
2018-07-19T07:09:03.037Z,1068
2018-07-19T07:09:23.311Z,1072
2018-07-19T07:09:43.695Z,1076
2018-07-19T07:10:03.965Z,1076
2018-07-19T07:10:24.139Z,1080
2018-07-19T07:10:44.410Z,1076
2018-07-19T07:11:04.592Z,1076
2018-07-19T07:11:24.748Z,1068
2018-07-19T07:11:45.602Z,1072
2018-07-19T07:12:06.303Z,1076
2018-07-19T07:12:26.479Z,1076
2018-07-19T07:12:46.664Z,1088
2018-07-19T07:13:07.376Z,1080
2018-07-19T07:13:27.557Z,1072
2018-07-19T07:13:47.702Z,1072
2018-07-19T07:14:07.865Z,1076
2018-07-19T07:14:28.475Z,1072
2018-07-19T07:14:48.681Z,1072
2018-07-19T07:15:08.993Z,1072
2018-07-19T07:15:29.158Z,1068
2018-07-19T07:15:49.485Z,1068
2018-07-19T07:16:10.409Z,1076
2018-07-19T07:16:30.578Z,1072
2018-07-19T07:16:50.732Z,1076
2018-07-19T07:17:10.962Z,1084
2018-07-19T07:18:06.466Z,1088
2018-07-19T07:18:26.685Z,1092
2018-07-19T07:18:46.850Z,1092
2018-07-19T07:19:07.007Z,1096
2018-07-19T07:19:27.536Z,1088
2018-07-19T07:19:47.811Z,1088
2018-07-19T07:20:07.997Z,1092
2018-07-19T07:20:28.164Z,1088
2018-07-19T07:20:48.450Z,1112
2018-07-19T07:21:08.830Z,1088
2018-07-19T07:21:29.514Z,1092
2018-07-19T07:21:50.003Z,1104
2018-07-19T07:22:10.879Z,1100
2018-07-19T07:22:31.045Z,1100
2018-07-19T07:22:51.224Z,1108
2018-07-19T07:23:11.366Z,1096
2018-07-19T07:23:31.560Z,1104
2018-07-19T07:23:52.347Z,1096
2018-07-19T07:24:12.522Z,1096
2018-07-19T07:24:32.721Z,1100
2018-07-19T07:24:52.876Z,1104
2018-07-19T07:25:13.090Z,1104
2018-07-19T07:25:33.307Z,1112
2018-07-19T07:25:53.522Z,1108
2018-07-19T07:26:13.698Z,1108
2018-07-19T07:26:34.567Z,1120
2018-07-19T07:26:54.740Z,1116
2018-07-19T07:27:14.917Z,1104
2018-07-19T07:27:35.087Z,1108
2018-07-19T07:27:55.923Z,1104
2018-07-19T07:28:16.140Z,1104
2018-07-19T07:28:36.388Z,1116
2018-07-19T07:28:56.547Z,1116
2018-07-19T07:29:17.247Z,1120
2018-07-19T07:29:37.422Z,1120
2018-07-19T07:29:57.640Z,1120
2018-07-19T07:30:17.804Z,1112
2018-07-19T07:30:38.171Z,1116
2018-07-19T07:30:58.370Z,1120
2018-07-19T07:31:18.548Z,1136
2018-07-19T07:31:38.721Z,1124
2018-07-19T07:31:58.899Z,1124
2018-07-19T07:32:19.049Z,1124
2018-07-19T07:32:39.220Z,1128
2018-07-19T07:32:59.780Z,1136
2018-07-19T07:33:19.952Z,1128
2018-07-19T07:33:40.700Z,1132
2018-07-19T07:34:01.454Z,1124
2018-07-19T07:34:21.590Z,1136
2018-07-19T07:34:41.963Z,1128
2018-07-19T07:35:02.212Z,1128
2018-07-19T07:35:22.440Z,1132
2018-07-19T07:35:42.604Z,1140
2018-07-19T07:36:02.777Z,1136
2018-07-19T07:36:22.978Z,1148
2018-07-19T07:36:43.143Z,1140
2018-07-19T07:37:03.336Z,1140
2018-07-19T07:37:23.500Z,1156
2018-07-19T07:37:43.691Z,1152
2018-07-19T07:38:03.840Z,1144
2018-07-19T07:38:24.001Z,1148
2018-07-19T07:38:44.209Z,1148
2018-07-19T07:39:04.670Z,1144
2018-07-19T07:39:25.026Z,1144
2018-07-19T07:39:45.183Z,1148
2018-07-19T07:40:05.730Z,1144
2018-07-19T07:40:25.921Z,1148
2018-07-19T07:40:46.075Z,1156
2018-07-19T07:41:06.356Z,1148
2018-07-19T07:41:27.292Z,1160
2018-07-19T07:41:47.667Z,1148
2018-07-19T07:42:07.968Z,1156
2018-07-19T07:42:28.289Z,1172
2018-07-19T07:42:48.448Z,1172
2018-07-19T07:43:08.606Z,1168
2018-07-19T07:43:28.812Z,1180
2018-07-19T07:43:48.968Z,1156
2018-07-19T07:44:09.940Z,1176
2018-07-19T07:44:30.077Z,1172
2018-07-19T07:44:50.270Z,1176
2018-07-19T07:45:10.442Z,1164
2018-07-19T07:45:30.633Z,1176
2018-07-19T07:45:50.791Z,1168
2018-07-19T07:46:11.047Z,1164
2018-07-19T07:46:31.211Z,1188
2018-07-19T07:46:51.394Z,1168
2018-07-19T07:47:11.563Z,1180
2018-07-19T07:47:32.259Z,1192
2018-07-19T07:47:52.431Z,1196
2018-07-19T07:48:12.612Z,1188
2018-07-19T07:48:32.786Z,1184
2018-07-19T07:48:53.112Z,1160
2018-07-19T07:49:13.300Z,1172
2018-07-19T07:49:33.614Z,1192
2018-07-19T07:49:54.309Z,1184
2018-07-19T07:50:15.086Z,1192
2018-07-19T07:50:35.641Z,1188
2018-07-19T07:50:55.823Z,1168
2018-07-19T07:51:16.198Z,1176
2018-07-19T07:51:37.095Z,1184
2018-07-19T07:51:57.266Z,1184
2018-07-19T07:52:17.434Z,1180
2018-07-19T07:52:37.651Z,1188
2018-07-19T07:52:58.320Z,1184
2018-07-19T07:53:18.525Z,1192
2018-07-19T07:53:38.705Z,1188
2018-07-19T07:53:58.959Z,1192
2018-07-19T07:54:19.135Z,1196
2018-07-19T07:54:39.290Z,1188
2018-07-19T07:54:59.429Z,1180
2018-07-19T07:55:19.598Z,1180
2018-07-19T07:55:39.949Z,1200
2018-07-19T07:56:00.111Z,1204
2018-07-19T07:56:20.257Z,1184
2018-07-19T07:56:40.439Z,1192
2018-07-19T07:57:00.598Z,1200
2018-07-19T07:57:20.847Z,1208
2018-07-19T07:57:41.030Z,1208
2018-07-19T07:58:01.210Z,1192
2018-07-19T07:58:21.371Z,1192
2018-07-19T07:58:42.153Z,1200
2018-07-19T07:59:02.342Z,1184
2018-07-19T07:59:22.575Z,1216
2018-07-19T07:59:42.712Z,1180
2018-07-19T08:00:04.091Z,1204
2018-07-19T08:00:24.297Z,1196
2018-07-19T08:00:44.517Z,1200
2018-07-19T08:01:04.755Z,1216
2018-07-19T08:01:24.917Z,1204
2018-07-19T08:01:45.097Z,1220
2018-07-19T08:02:05.265Z,1208
2018-07-19T08:02:25.445Z,1212
2018-07-19T08:02:45.604Z,1208
2018-07-19T08:03:05.767Z,1220
2018-07-19T08:03:25.930Z,1224
2018-07-19T08:03:46.097Z,1232
2018-07-19T08:04:06.774Z,1224
2018-07-19T08:04:27.495Z,1228
2018-07-19T08:04:47.652Z,1236
2018-07-19T08:05:07.844Z,1244
2018-07-19T08:05:28.554Z,1240
2018-07-19T08:05:48.710Z,1240
2018-07-19T08:06:08.913Z,1244
2018-07-19T08:06:29.082Z,1256
2018-07-19T08:06:49.246Z,1248
2018-07-19T08:07:09.435Z,1256
2018-07-19T08:07:30.034Z,1264
2018-07-19T08:07:50.228Z,1260
2018-07-19T08:08:10.396Z,1260
2018-07-19T08:08:31.148Z,1260
2018-07-19T08:08:51.746Z,1280
2018-07-19T08:09:11.906Z,1272
2018-07-19T08:09:32.087Z,1256
2018-07-19T08:09:52.261Z,1316
2018-07-19T08:10:12.465Z,1252
2018-07-19T08:10:32.635Z,1256
2018-07-19T08:10:52.796Z,1272
2018-07-19T08:11:12.979Z,1256
2018-07-19T08:11:33.162Z,1264
2018-07-19T08:11:53.358Z,1276
2018-07-19T08:12:13.521Z,1268
2018-07-19T08:12:33.686Z,1268
2018-07-19T08:12:53.845Z,1260
2018-07-19T08:13:14.015Z,1272
2018-07-19T08:13:34.170Z,1288
2018-07-19T08:13:54.369Z,1288
2018-07-19T08:14:14.525Z,1296
2018-07-19T08:14:34.682Z,1276
2018-07-19T08:14:55.301Z,1276
2018-07-19T08:15:15.466Z,1284
2018-07-19T08:15:35.909Z,1280
2018-07-19T08:15:56.007Z,1284
2018-07-19T08:16:15.984Z,1276
2018-07-19T08:16:36.170Z,1284
2018-07-19T08:16:56.335Z,1284
2018-07-19T08:17:16.499Z,1256
2018-07-19T08:17:36.669Z,1276
2018-07-19T08:17:57.305Z,1276
2018-07-19T08:18:17.490Z,1272
2018-07-19T08:18:37.648Z,1272
2018-07-19T08:18:57.798Z,1272
2018-07-19T08:19:17.970Z,1288
2018-07-19T08:19:38.213Z,1304
2018-07-19T08:19:58.377Z,1272
2018-07-19T08:20:18.534Z,1288
2018-07-19T08:20:38.702Z,1300
2018-07-19T08:20:58.876Z,1296
2018-07-19T08:21:19.053Z,1292
2018-07-19T08:21:39.235Z,1288
2018-07-19T08:21:59.479Z,1308
2018-07-19T08:22:19.668Z,1336
2018-07-19T08:22:39.853Z,1308
2018-07-19T08:23:00.029Z,1300
2018-07-19T08:23:20.194Z,1304
2018-07-19T08:23:41.463Z,1316
2018-07-19T08:24:01.622Z,1292
2018-07-19T08:24:21.779Z,1312
2018-07-19T08:24:41.950Z,1292
2018-07-19T08:25:02.703Z,1316
2018-07-19T08:25:23.446Z,1304
2018-07-19T08:25:43.573Z,1316
2018-07-19T08:26:03.740Z,1372
2018-07-19T08:26:23.903Z,1316
2018-07-19T08:26:44.062Z,1312
2018-07-19T08:27:04.219Z,1372
2018-07-19T08:27:24.392Z,1328
2018-07-19T08:27:44.555Z,1332
2018-07-19T08:28:04.713Z,1316
2018-07-19T08:28:24.893Z,1340
2018-07-19T08:28:45.048Z,1332
2018-07-19T08:29:05.302Z,1312
2018-07-19T08:29:25.411Z,1316
2018-07-19T08:29:45.580Z,1320
2018-07-19T08:30:05.787Z,1320
2018-07-19T08:30:25.940Z,1312
2018-07-19T08:30:46.082Z,1312
2018-07-19T08:31:06.270Z,1324
2018-07-19T08:31:26.427Z,1324
2018-07-19T08:31:46.594Z,1320
2018-07-19T08:32:06.800Z,1324
2018-07-19T08:32:26.985Z,1332
2018-07-19T08:32:47.101Z,1336
2018-07-19T08:33:07.270Z,1328
2018-07-19T08:33:27.444Z,1328
2018-07-19T08:33:47.637Z,1356
2018-07-19T08:34:07.810Z,1348
2018-07-19T08:34:27.988Z,1324
2018-07-19T08:34:48.148Z,1328
2018-07-19T08:35:08.329Z,1324
2018-07-19T08:35:28.511Z,1320
2018-07-19T08:35:48.738Z,1300
2018-07-19T08:36:09.213Z,1328
2018-07-19T08:36:29.462Z,1320
2018-07-19T08:36:50.233Z,1336
2018-07-19T08:37:10.407Z,1344
2018-07-19T08:37:30.589Z,1364
2018-07-19T08:37:50.736Z,1356
2018-07-19T08:38:11.965Z,1348
2018-07-19T08:38:32.166Z,1364
2018-07-19T08:38:52.325Z,1356
2018-07-19T08:39:12.470Z,1364
2018-07-19T08:39:32.687Z,1384
2018-07-19T08:39:53.440Z,1336
2018-07-19T08:40:13.597Z,1364
2018-07-19T08:40:33.784Z,1356
2018-07-19T08:40:53.954Z,1340
2018-07-19T08:41:14.145Z,1388
2018-07-19T08:41:34.349Z,1396
2018-07-19T08:41:54.696Z,1372
2018-07-19T08:42:14.823Z,1408
2018-07-19T08:42:35.587Z,1380
2018-07-19T08:42:55.749Z,1468
2018-07-19T08:43:15.937Z,1472
2018-07-19T08:43:36.129Z,1464
2018-07-19T08:43:56.873Z,1492
2018-07-19T08:44:17.636Z,1472
2018-07-19T08:44:37.810Z,1416
2018-07-19T08:44:57.990Z,1424
2018-07-19T08:45:18.146Z,1452
2018-07-19T08:45:38.912Z,1468
2018-07-19T08:45:59.090Z,1512
2018-07-19T08:46:19.282Z,1468
2018-07-19T08:46:39.451Z,1500
2018-07-19T08:46:59.617Z,1688
2018-07-19T08:47:19.768Z,1864
2018-07-19T08:47:39.943Z,1816
2018-07-19T08:48:00.106Z,1656
2018-07-19T08:48:20.278Z,1520
2018-07-19T08:48:41.340Z,1512
2018-07-19T08:49:01.506Z,1512
2018-07-19T08:49:21.675Z,1552
2018-07-19T08:49:41.848Z,1380
2018-07-19T08:50:02.020Z,1268
2018-07-19T08:50:22.183Z,1240
2018-07-19T08:50:42.349Z,1468
2018-07-19T08:51:02.521Z,1028
2018-07-19T08:51:23.332Z,1116
2018-07-19T08:51:43.652Z,1132
2018-07-19T08:52:03.718Z,1004
2018-07-19T08:52:23.891Z,1004
2018-07-19T08:52:44.066Z,1016
2018-07-19T08:53:04.280Z,1120
2018-07-19T08:53:24.461Z,1288
2018-07-19T08:53:44.631Z,1448
2018-07-19T08:54:04.792Z,1436
2018-07-19T08:54:24.952Z,1516
2018-07-19T08:54:45.810Z,1448
2018-07-19T08:55:05.969Z,1124
2018-07-19T08:55:26.174Z,1580
2018-07-19T08:55:46.361Z,1564
2018-07-19T08:56:26.153Z,1456
2018-07-19T08:56:46.367Z,1536
2018-07-19T08:57:06.476Z,1548
2018-07-19T08:57:27.316Z,1988
2018-07-19T08:57:47.479Z,1948
2018-07-19T08:58:07.684Z,1720
2018-07-19T08:58:27.848Z,1964
2018-07-19T08:58:48.004Z,2052
2018-07-19T08:59:08.811Z,2224
2018-07-19T08:59:29.004Z,2472
2018-07-19T08:59:49.176Z,2656
2018-07-19T09:00:09.998Z,2492
2018-07-19T09:00:30.197Z,2168
2018-07-19T09:00:50.387Z,1804
2018-07-19T09:01:10.546Z,1600
2018-07-19T09:01:31.147Z,1572
2018-07-19T09:01:51.847Z,1556
2018-07-19T09:02:12.037Z,1132
2018-07-19T09:02:32.341Z,1100
2018-07-19T09:02:52.549Z,1116
2018-07-19T09:03:13.097Z,1168
2018-07-19T09:03:33.903Z,1412
2018-07-19T09:03:54.093Z,1540
2018-07-19T09:04:14.248Z,1476
2018-07-19T09:04:34.455Z,1568
2018-07-19T09:04:54.609Z,1604
2018-07-19T09:05:14.787Z,1652
2018-07-19T09:05:34.953Z,1624
2018-07-19T09:05:55.133Z,1640
2018-07-19T09:06:15.758Z,1628
2018-07-19T09:06:35.975Z,1632
2018-07-19T09:06:56.155Z,1652
2018-07-19T09:07:16.315Z,1636
2018-07-19T09:07:37.391Z,1680
2018-07-19T09:07:57.607Z,1668
2018-07-19T09:08:17.775Z,1772
2018-07-19T09:08:37.954Z,1680
2018-07-19T09:08:58.474Z,1696
2018-07-19T09:09:18.648Z,1700
2018-07-19T09:09:38.822Z,1576
2018-07-19T09:09:58.985Z,1464
2018-07-19T09:10:19.163Z,1176
2018-07-19T09:10:39.330Z,1144
2018-07-19T09:10:59.481Z,1172
2018-07-19T09:11:19.666Z,1208
2018-07-19T09:11:40.331Z,1196
2018-07-19T09:12:00.476Z,1212
2018-07-19T09:12:20.642Z,1664
2018-07-19T09:12:40.874Z,1688
2018-07-19T09:13:01.024Z,1724
2018-07-19T09:13:21.255Z,1708
2018-07-19T09:13:41.498Z,1728
2018-07-19T09:14:01.703Z,1356
2018-07-19T09:14:21.823Z,1812
2018-07-19T09:14:41.998Z,1720
2018-07-19T09:15:02.181Z,2112
2018-07-19T09:15:22.395Z,2120
2018-07-19T09:15:42.601Z,2172
2018-07-19T09:16:02.778Z,2148
2018-07-19T09:16:23.010Z,1920
2018-07-19T09:16:43.190Z,1468
2018-07-19T09:17:03.352Z,1388
2018-07-19T09:17:23.533Z,1792
2018-07-19T09:17:43.821Z,1624
2018-07-19T09:18:04.006Z,1944
2018-07-19T09:18:24.254Z,1808
2018-07-19T09:18:45.575Z,1832
2018-07-19T09:19:06.122Z,1868
2018-07-19T09:19:26.331Z,1756
2018-07-19T09:19:46.503Z,1700
2018-07-19T09:20:06.659Z,1776
2018-07-19T09:20:26.822Z,1824
2018-07-19T09:20:47.068Z,1852
2018-07-19T09:21:07.234Z,1916
2018-07-19T09:21:27.933Z,1912
2018-07-19T09:21:48.108Z,1972
2018-07-19T09:22:08.284Z,1960
2018-07-19T09:22:28.502Z,1888
2018-07-19T09:22:48.742Z,1832
2018-07-19T09:23:08.871Z,1856
2018-07-19T09:23:29.039Z,1876
2018-07-19T09:23:49.253Z,1788
2018-07-19T09:24:10.070Z,1864
2018-07-19T09:24:30.276Z,1536
2018-07-19T09:24:50.459Z,1528
2018-07-19T09:25:10.632Z,1588
2018-07-19T09:25:32.403Z,1636
2018-07-19T09:25:52.581Z,1668
2018-07-19T09:26:12.743Z,1668
2018-07-19T09:26:33.212Z,1596
2018-07-19T09:26:53.365Z,1596
2018-07-19T09:27:14.050Z,1832
2018-07-19T09:27:34.254Z,1908
2018-07-19T09:27:54.429Z,1796
2018-07-19T09:28:14.582Z,1636
2018-07-19T09:28:34.809Z,1640
2018-07-19T09:28:55.010Z,1620
2018-07-19T09:29:15.198Z,1704
2018-07-19T09:29:35.404Z,1812
2018-07-19T09:29:55.865Z,1900
2018-07-19T09:30:16.060Z,1940
2018-07-19T09:30:36.251Z,2236
2018-07-19T09:30:56.467Z,2476
2018-07-19T09:31:16.643Z,2524
2018-07-19T09:31:36.808Z,2448
2018-07-19T09:31:56.992Z,2532
2018-07-19T09:32:17.409Z,2576
2018-07-19T09:32:37.566Z,2220
2018-07-19T09:32:57.733Z,1788
2018-07-19T09:33:17.968Z,1792
2018-07-19T09:33:38.180Z,1944
2018-07-19T09:33:58.348Z,2096
2018-07-19T09:34:18.558Z,1960
2018-07-19T09:34:38.735Z,1660
2018-07-19T09:34:58.931Z,1496
2018-07-19T09:35:19.134Z,1468
2018-07-19T09:35:39.612Z,1968
2018-07-19T09:35:59.786Z,1540
2018-07-19T09:36:19.948Z,1664
2018-07-19T09:36:40.146Z,1700
2018-07-19T09:37:00.312Z,2180
2018-07-19T09:37:20.524Z,1908
2018-07-19T09:37:40.689Z,1940
2018-07-19T09:38:00.947Z,1956
2018-07-19T09:38:21.194Z,1880
2018-07-19T09:38:41.363Z,1768
